sensor_id;sensor_type;location;lat;lon;timestamp;pressure;altitude;pressure_sealevel;temperature;humidity
6565;BME280;3316;44.118;27.258;2023-04-27T00:00:23;100782.81;;;10.22;100.00
6565;BME280;3316;44.118;27.258;2023-04-27T00:02:48;100784.66;;;10.10;100.00
6565;BME280;3316;44.118;27.258;2023-04-27T00:05:14;100761.00;;;10.04;100.00
6565;BME280;3316;44.118;27.258;2023-04-27T00:07:39;100801.22;;;10.25;100.00
6565;BME280;3316;44.118;27.258;2023-04-27T00:10:06;100776.78;;;10.10;100.00
6565;BME280;3316;44.118;27.258;2023-04-27T00:12:31;100799.53;;;10.14;100.00
6565;BME280;3316;44.118;27.258;2023-04-27T00:14:57;100795.13;;;10.17;100.00
6565;BME280;3316;44.118;27.258;2023-04-27T00:17:22;100804.78;;;10.08;100.00
6565;BME280;3316;44.118;27.258;2023-04-27T00:19:48;100810.94;;;10.08;100.00
6565;BME280;3316;44.118;27.258;2023-04-27T00:22:13;100810.88;;;10.20;100.00
6565;BME280;3316;44.118;27.258;2023-04-27T00:24:39;100799.53;;;10.09;100.00
6565;BME280;3316;44.118;27.258;2023-04-27T00:27:06;100794.38;;;9.89;100.00
6565;BME280;3316;44.118;27.258;2023-04-27T00:29:31;100796.16;;;9.81;100.00
6565;BME280;3316;44.118;27.258;2023-04-27T00:31:57;100809.19;;;10.01;100.00
6565;BME280;3316;44.118;27.258;2023-04-27T00:34:22;100817.03;;;10.09;100.00
6565;BME280;3316;44.118;27.258;2023-04-27T00:36:48;100781.22;;;9.91;100.00
6565;BME280;3316;44.118;27.258;2023-04-27T00:39:13;100806.63;;;9.89;100.00
6565;BME280;3316;44.118;27.258;2023-04-27T00:41:39;100809.28;;;9.83;100.00
6565;BME280;3316;44.118;27.258;2023-04-27T00:44:04;100796.19;;;9.75;100.00
6565;BME280;3316;44.118;27.258;2023-04-27T00:46:31;100814.56;;;9.80;100.00
6565;BME280;3316;44.118;27.258;2023-04-27T00:48:57;100801.38;;;9.91;100.00
6565;BME280;3316;44.118;27.258;2023-04-27T00:51:23;100801.41;;;9.81;100.00
6565;BME280;3316;44.118;27.258;2023-04-27T00:53:56;100797.97;;;9.75;100.00
6565;BME280;3316;44.118;27.258;2023-04-27T00:56:22;100824.19;;;9.82;100.00
6565;BME280;3316;44.118;27.258;2023-04-27T00:58:48;100808.44;;;9.78;100.00
6565;BME280;3316;44.118;27.258;2023-04-27T01:01:13;100819.81;;;9.81;100.00
6565;BME280;3316;44.118;27.258;2023-04-27T01:03:39;100811.03;;;9.85;100.00
6565;BME280;3316;44.118;27.258;2023-04-27T01:06:04;100815.44;;;9.77;100.00
6565;BME280;3316;44.118;27.258;2023-04-27T01:08:30;100803.22;;;9.70;100.00
6565;BME280;3316;44.118;27.258;2023-04-27T01:10:55;100814.59;;;9.69;100.00
6565;BME280;3316;44.118;27.258;2023-04-27T01:13:21;100817.19;;;9.75;100.00
6565;BME280;3316;44.118;27.258;2023-04-27T01:15:47;100809.28;;;9.81;100.00
6565;BME280;3316;44.118;27.258;2023-04-27T01:18:12;100811.06;;;9.81;100.00
6565;BME280;3316;44.118;27.258;2023-04-27T01:20:38;100805.84;;;9.72;100.00
6565;BME280;3316;44.118;27.258;2023-04-27T01:23:04;100819.84;;;9.72;100.00
6565;BME280;3316;44.118;27.258;2023-04-27T01:25:29;100817.22;;;9.69;100.00
6565;BME280;3316;44.118;27.258;2023-04-27T01:27:55;100825.91;;;9.85;100.00
6565;BME280;3316;44.118;27.258;2023-04-27T01:30:21;100818.13;;;9.73;100.00
6565;BME280;3316;44.118;27.258;2023-04-27T01:32:47;100837.31;;;9.87;100.00
6565;BME280;3316;44.118;27.258;2023-04-27T01:35:16;100782.31;;;9.39;100.00
6565;BME280;3316;44.118;27.258;2023-04-27T01:37:41;100818.16;;;9.59;100.00
6565;BME280;3316;44.118;27.258;2023-04-27T01:40:07;100824.25;;;9.64;100.00
6565;BME280;3316;44.118;27.258;2023-04-27T01:42:33;100829.50;;;9.70;100.00
6565;BME280;3316;44.118;27.258;2023-04-27T01:44:59;100833.88;;;9.70;100.00
6565;BME280;3316;44.118;27.258;2023-04-27T01:47:25;100826.03;;;9.56;100.00
6565;BME280;3316;44.118;27.258;2023-04-27T01:49:51;100833.06;;;9.54;100.00
6565;BME280;3316;44.118;27.258;2023-04-27T01:52:16;100823.44;;;9.53;100.00
6565;BME280;3316;44.118;27.258;2023-04-27T01:54:42;100824.28;;;9.60;100.00
6565;BME280;3316;44.118;27.258;2023-04-27T01:57:07;100820.81;;;9.47;100.00
6565;BME280;3316;44.118;27.258;2023-04-27T01:59:32;100827.78;;;9.63;100.00
6565;BME280;3316;44.118;27.258;2023-04-27T02:01:58;100831.28;;;9.65;100.00
6565;BME280;3316;44.118;27.258;2023-04-27T02:04:23;100821.66;;;9.61;100.00
6565;BME280;3316;44.118;27.258;2023-04-27T02:06:49;100823.41;;;9.56;100.00
6565;BME280;3316;44.118;27.258;2023-04-27T02:09:15;100823.38;;;9.68;100.00
6565;BME280;3316;44.118;27.258;2023-04-27T02:11:40;100823.38;;;9.64;100.00
6565;BME280;3316;44.118;27.258;2023-04-27T02:14:06;100815.47;;;9.70;100.00
6565;BME280;3316;44.118;27.258;2023-04-27T02:16:31;100815.50;;;9.62;100.00
6565;BME280;3316;44.118;27.258;2023-04-27T02:18:56;100812.91;;;9.59;100.00
6565;BME280;3316;44.118;27.258;2023-04-27T02:21:23;100812.88;;;9.62;100.00
6565;BME280;3316;44.118;27.258;2023-04-27T02:23:48;100812.84;;;9.73;100.00
6565;BME280;3316;44.118;27.258;2023-04-27T02:26:18;100815.50;;;9.58;100.00
6565;BME280;3316;44.118;27.258;2023-04-27T02:28:45;100779.75;;;9.24;100.00
6565;BME280;3316;44.118;27.258;2023-04-27T02:31:12;100815.56;;;9.43;100.00
6565;BME280;3316;44.118;27.258;2023-04-27T02:33:39;100805.06;;;9.44;100.00
6565;BME280;3316;44.118;27.258;2023-04-27T02:36:04;100814.72;;;9.36;100.00
6565;BME280;3316;44.118;27.258;2023-04-27T02:38:30;100816.47;;;9.31;100.00
6565;BME280;3316;44.118;27.258;2023-04-27T02:40:55;100822.63;;;9.23;100.00
6565;BME280;3316;44.118;27.258;2023-04-27T02:43:21;100815.63;;;9.22;100.00
6565;BME280;3316;44.118;27.258;2023-04-27T02:45:47;100818.25;;;9.22;100.00
6565;BME280;3316;44.118;27.258;2023-04-27T02:48:12;100826.97;;;9.34;100.00
6565;BME280;3316;44.118;27.258;2023-04-27T02:50:42;100816.47;;;9.27;100.00
6565;BME280;3316;44.118;27.258;2023-04-27T02:53:08;100830.50;;;9.27;100.00
6565;BME280;3316;44.118;27.258;2023-04-27T02:55:34;100843.63;;;9.30;100.00
6565;BME280;3316;44.118;27.258;2023-04-27T02:57:59;100839.25;;;9.29;100.00
6565;BME280;3316;44.118;27.258;2023-04-27T03:00:25;100833.13;;;9.27;100.00
6565;BME280;3316;44.118;27.258;2023-04-27T03:02:50;100842.75;;;9.31;100.00
6565;BME280;3316;44.118;27.258;2023-04-27T03:05:16;100848.88;;;9.32;100.00
6565;BME280;3316;44.118;27.258;2023-04-27T03:07:41;100847.13;;;9.26;100.00
6565;BME280;3316;44.118;27.258;2023-04-27T03:10:08;100849.72;;;9.31;100.00
6565;BME280;3316;44.118;27.258;2023-04-27T03:12:33;100847.13;;;9.35;100.00
6565;BME280;3316;44.118;27.258;2023-04-27T03:14:59;100838.34;;;9.33;100.00
6565;BME280;3316;44.118;27.258;2023-04-27T03:17:25;100858.47;;;9.40;100.00
6565;BME280;3316;44.118;27.258;2023-04-27T03:19:51;100855.88;;;9.30;100.00
6565;BME280;3316;44.118;27.258;2023-04-27T03:22:16;100855.88;;;9.36;100.00
6565;BME280;3316;44.118;27.258;2023-04-27T03:24:42;100872.50;;;9.38;100.00
6565;BME280;3316;44.118;27.258;2023-04-27T03:27:07;100861.09;;;9.39;100.00
6565;BME280;3316;44.118;27.258;2023-04-27T03:29:33;100874.22;;;9.43;100.00
6565;BME280;3316;44.118;27.258;2023-04-27T03:31:58;100882.13;;;9.37;100.00
6565;BME280;3316;44.118;27.258;2023-04-27T03:34:24;100883.03;;;9.30;100.00
6565;BME280;3316;44.118;27.258;2023-04-27T03:36:49;100896.97;;;9.38;100.00
6565;BME280;3316;44.118;27.258;2023-04-27T03:39:15;100899.63;;;9.37;100.00
6565;BME280;3316;44.118;27.258;2023-04-27T03:41:40;100902.22;;;9.50;100.00
6565;BME280;3316;44.118;27.258;2023-04-27T03:44:06;100900.50;;;9.42;100.00
6565;BME280;3316;44.118;27.258;2023-04-27T03:46:31;100918.88;;;9.31;100.00
6565;BME280;3316;44.118;27.258;2023-04-27T03:48:57;100912.75;;;9.37;100.00
6565;BME280;3316;44.118;27.258;2023-04-27T03:51:22;100923.25;;;9.43;100.00
6565;BME280;3316;44.118;27.258;2023-04-27T03:53:48;100924.13;;;9.51;100.00
6565;BME280;3316;44.118;27.258;2023-04-27T03:56:14;100923.25;;;9.47;100.00
6565;BME280;3316;44.118;27.258;2023-04-27T03:58:39;100883.88;;;9.25;100.00
6565;BME280;3316;44.118;27.258;2023-04-27T04:01:04;100932.88;;;9.41;100.00
6565;BME280;3316;44.118;27.258;2023-04-27T04:03:30;100938.16;;;9.44;100.00
6565;BME280;3316;44.118;27.258;2023-04-27T04:05:56;100936.38;;;9.56;100.00
6565;BME280;3316;44.118;27.258;2023-04-27T04:08:21;100921.47;;;9.63;100.00
6565;BME280;3316;44.118;27.258;2023-04-27T04:10:46;100903.13;;;9.31;100.00
6565;BME280;3316;44.118;27.258;2023-04-27T04:13:12;100952.13;;;9.50;100.00
6565;BME280;3316;44.118;27.258;2023-04-27T04:15:37;100948.59;;;9.62;100.00
6565;BME280;3316;44.118;27.258;2023-04-27T04:18:03;100946.00;;;9.56;100.00
6565;BME280;3316;44.118;27.258;2023-04-27T04:20:28;100960.00;;;9.61;100.00
6565;BME280;3316;44.118;27.258;2023-04-27T04:22:54;100951.25;;;9.56;100.00
6565;BME280;3316;44.118;27.258;2023-04-27T04:25:19;100951.25;;;9.54;100.00
6565;BME280;3316;44.118;27.258;2023-04-27T04:27:45;100959.13;;;9.56;100.00
6565;BME280;3316;44.118;27.258;2023-04-27T04:30:12;100960.03;;;9.65;100.00
6565;BME280;3316;44.118;27.258;2023-04-27T04:32:38;100958.22;;;9.72;100.00
6565;BME280;3316;44.118;27.258;2023-04-27T04:35:04;100959.97;;;9.76;100.00
6565;BME280;3316;44.118;27.258;2023-04-27T04:37:34;100968.75;;;9.75;100.00
6565;BME280;3316;44.118;27.258;2023-04-27T04:39:59;100964.31;;;10.10;100.00
6565;BME280;3316;44.118;27.258;2023-04-27T04:42:27;100956.47;;;11.46;100.00
6565;BME280;3316;44.118;27.258;2023-04-27T04:44:53;100948.56;;;12.30;96.10
6565;BME280;3316;44.118;27.258;2023-04-27T04:47:18;100950.16;;;13.07;87.84
6565;BME280;3316;44.118;27.258;2023-04-27T04:49:44;100957.03;;;13.18;81.10
6565;BME280;3316;44.118;27.258;2023-04-27T04:52:09;100968.31;;;13.80;78.23
6565;BME280;3316;44.118;27.258;2023-04-27T04:54:35;100976.56;;;13.62;73.21
6565;BME280;3316;44.118;27.258;2023-04-27T04:57:00;100981.84;;;13.07;78.64
6565;BME280;3316;44.118;27.258;2023-04-27T04:59:28;100984.63;;;13.54;76.49
6565;BME280;3316;44.118;27.258;2023-04-27T05:01:53;100975.25;;;13.35;76.19
6565;BME280;3316;44.118;27.258;2023-04-27T05:04:20;100984.78;;;12.87;78.60
6565;BME280;3316;44.118;27.258;2023-04-27T05:06:45;100983.41;;;12.59;80.10
6565;BME280;3316;44.118;27.258;2023-04-27T05:09:11;100991.19;;;12.68;81.34
6565;BME280;3316;44.118;27.258;2023-04-27T05:11:45;100979.25;;;13.05;78.71
6565;BME280;3316;44.118;27.258;2023-04-27T05:14:10;100985.06;;;13.27;76.28
6565;BME280;3316;44.118;27.258;2023-04-27T05:16:36;100995.91;;;13.65;72.06
6565;BME280;3316;44.118;27.258;2023-04-27T05:19:01;100995.94;;;14.57;69.37
6565;BME280;3316;44.118;27.258;2023-04-27T05:21:27;100994.09;;;14.16;66.94
6565;BME280;3316;44.118;27.258;2023-04-27T05:23:52;101000.75;;;15.17;66.50
6565;BME280;3316;44.118;27.258;2023-04-27T05:26:18;100989.28;;;15.89;61.56
6565;BME280;3316;44.118;27.258;2023-04-27T05:28:44;100982.06;;;15.24;61.75
6565;BME280;3316;44.118;27.258;2023-04-27T05:31:11;100986.75;;;14.74;65.18
6565;BME280;3316;44.118;27.258;2023-04-27T05:33:36;100978.72;;;13.38;65.50
6565;BME280;3316;44.118;27.258;2023-04-27T05:36:02;100998.19;;;13.86;68.30
6565;BME280;3316;44.118;27.258;2023-04-27T05:38:27;100993.00;;;15.47;62.65
6565;BME280;3316;44.118;27.258;2023-04-27T05:40:54;100990.09;;;16.55;57.74
6565;BME280;3316;44.118;27.258;2023-04-27T05:43:20;100991.72;;;15.96;57.18
6565;BME280;3316;44.118;27.258;2023-04-27T05:45:46;100995.38;;;16.86;53.98
6565;BME280;3316;44.118;27.258;2023-04-27T05:48:11;100982.13;;;16.23;54.17
6565;BME280;3316;44.118;27.258;2023-04-27T05:50:38;100992.06;;;16.47;53.76
6565;BME280;3316;44.118;27.258;2023-04-27T05:53:03;100992.78;;;16.84;53.14
6565;BME280;3316;44.118;27.258;2023-04-27T05:55:30;100980.44;;;15.88;53.82
6565;BME280;3316;44.118;27.258;2023-04-27T05:57:55;100990.22;;;15.14;56.76
6565;BME280;3316;44.118;27.258;2023-04-27T06:00:21;100979.72;;;14.72;57.89
6565;BME280;3316;44.118;27.258;2023-04-27T06:02:47;100986.94;;;15.05;58.42
6565;BME280;3316;44.118;27.258;2023-04-27T06:05:12;100983.91;;;15.57;55.83
6565;BME280;3316;44.118;27.258;2023-04-27T06:07:38;100975.03;;;15.23;54.35
6565;BME280;3316;44.118;27.258;2023-04-27T06:10:04;100989.94;;;14.88;55.66
6565;BME280;3316;44.118;27.258;2023-04-27T06:12:30;100982.13;;;15.21;54.28
6565;BME280;3316;44.118;27.258;2023-04-27T06:14:56;100991.75;;;14.86;54.47
6565;BME280;3316;44.118;27.258;2023-04-27T06:17:21;100950.38;;;13.95;55.92
6565;BME280;3316;44.118;27.258;2023-04-27T06:19:47;100986.69;;;13.87;56.45
6565;BME280;3316;44.118;27.258;2023-04-27T06:22:12;100986.44;;;14.01;56.96
6565;BME280;3316;44.118;27.258;2023-04-27T06:24:37;100983.66;;;13.61;56.07
6565;BME280;3316;44.118;27.258;2023-04-27T06:27:03;100973.53;;;13.32;55.63
6565;BME280;3316;44.118;27.258;2023-04-27T06:29:28;100960.41;;;12.67;57.92
6565;BME280;3316;44.118;27.258;2023-04-27T06:31:54;100985.91;;;12.68;59.04
6565;BME280;3316;44.118;27.258;2023-04-27T06:34:19;100988.13;;;12.98;61.44
6565;BME280;3316;44.118;27.258;2023-04-27T06:36:45;100982.03;;;13.51;60.43
6565;BME280;3316;44.118;27.258;2023-04-27T06:39:11;100981.31;;;13.40;57.84
6565;BME280;3316;44.118;27.258;2023-04-27T06:41:36;100987.88;;;13.70;57.42
6565;BME280;3316;44.118;27.258;2023-04-27T06:44:02;100986.31;;;13.58;56.68
6565;BME280;3316;44.118;27.258;2023-04-27T06:46:27;100976.38;;;13.22;59.17
6565;BME280;3316;44.118;27.258;2023-04-27T06:48:52;100979.44;;;13.50;60.33
6565;BME280;3316;44.118;27.258;2023-04-27T06:51:18;100994.38;;;13.51;59.75
6565;BME280;3316;44.118;27.258;2023-04-27T06:53:43;100999.97;;;13.32;60.28
6565;BME280;3316;44.118;27.258;2023-04-27T06:56:10;100987.59;;;13.34;58.41
6565;BME280;3316;44.118;27.258;2023-04-27T06:58:36;101002.06;;;13.67;55.35
6565;BME280;3316;44.118;27.258;2023-04-27T07:01:02;101003.16;;;13.53;57.96
6565;BME280;3316;44.118;27.258;2023-04-27T07:03:28;101006.41;;;13.70;56.91
6565;BME280;3316;44.118;27.258;2023-04-27T07:05:54;100998.31;;;13.77;56.74
6565;BME280;3316;44.118;27.258;2023-04-27T07:08:21;101006.88;;;13.91;55.19
6565;BME280;3316;44.118;27.258;2023-04-27T07:10:46;101003.47;;;13.85;56.60
6565;BME280;3316;44.118;27.258;2023-04-27T07:13:12;101006.59;;;14.06;57.57
6565;BME280;3316;44.118;27.258;2023-04-27T07:15:37;101000.81;;;14.76;55.61
6565;BME280;3316;44.118;27.258;2023-04-27T07:18:03;101016.69;;;14.78;53.83
6565;BME280;3316;44.118;27.258;2023-04-27T07:20:28;101006.09;;;14.35;54.06
6565;BME280;3316;44.118;27.258;2023-04-27T07:22:54;101009.19;;;14.57;54.92
6565;BME280;3316;44.118;27.258;2023-04-27T07:25:19;101007.94;;;13.83;54.97
6565;BME280;3316;44.118;27.258;2023-04-27T07:27:45;101006.72;;;14.02;56.54
6565;BME280;3316;44.118;27.258;2023-04-27T07:30:11;100992.91;;;14.32;56.32
6565;BME280;3316;44.118;27.258;2023-04-27T07:32:41;100987.28;;;14.03;57.48
6565;BME280;3316;44.118;27.258;2023-04-27T07:35:08;100996.09;;;14.49;55.20
6565;BME280;3316;44.118;27.258;2023-04-27T07:37:34;100970.16;;;14.65;53.71
6565;BME280;3316;44.118;27.258;2023-04-27T07:40:02;100959.25;;;14.80;53.55
6565;BME280;3316;44.118;27.258;2023-04-27T07:42:30;101005.53;;;15.03;53.25
6565;BME280;3316;44.118;27.258;2023-04-27T07:44:55;100980.28;;;14.46;53.59
6565;BME280;3316;44.118;27.258;2023-04-27T07:47:21;100999.91;;;15.17;53.29
6565;BME280;3316;44.118;27.258;2023-04-27T07:49:47;101007.84;;;16.21;52.08
6565;BME280;3316;44.118;27.258;2023-04-27T07:52:13;100999.16;;;16.16;50.06
6565;BME280;3316;44.118;27.258;2023-04-27T07:54:39;100998.63;;;16.96;49.25
6565;BME280;3316;44.118;27.258;2023-04-27T07:57:08;100988.38;;;17.39;48.53
6565;BME280;3316;44.118;27.258;2023-04-27T07:59:37;101000.91;;;17.35;47.00
6565;BME280;3316;44.118;27.258;2023-04-27T08:02:03;101000.09;;;17.06;47.98
6565;BME280;3316;44.118;27.258;2023-04-27T08:04:28;101015.31;;;17.28;46.75
6565;BME280;3316;44.118;27.258;2023-04-27T08:06:54;100990.69;;;17.51;46.01
6565;BME280;3316;44.118;27.258;2023-04-27T08:09:19;101007.00;;;17.39;45.17
6565;BME280;3316;44.118;27.258;2023-04-27T08:11:45;101004.09;;;17.74;46.83
6565;BME280;3316;44.118;27.258;2023-04-27T08:14:10;101008.81;;;17.91;43.18
6565;BME280;3316;44.118;27.258;2023-04-27T08:16:41;101006.81;;;17.97;43.94
6565;BME280;3316;44.118;27.258;2023-04-27T08:19:07;100993.97;;;18.10;42.50
6565;BME280;3316;44.118;27.258;2023-04-27T08:21:37;101013.25;;;17.38;44.06
6565;BME280;3316;44.118;27.258;2023-04-27T08:24:04;100999.44;;;17.54;45.16
6565;BME280;3316;44.118;27.258;2023-04-27T08:26:30;101003.00;;;18.04;44.80
6565;BME280;3316;44.118;27.258;2023-04-27T08:28:56;101004.25;;;18.45;43.73
6565;BME280;3316;44.118;27.258;2023-04-27T08:31:23;101007.03;;;18.88;44.12
6565;BME280;3316;44.118;27.258;2023-04-27T08:33:49;101004.88;;;18.75;43.40
6565;BME280;3316;44.118;27.258;2023-04-27T08:36:15;101009.19;;;18.55;42.34
6565;BME280;3316;44.118;27.258;2023-04-27T08:38:40;101021.22;;;18.42;45.51
6565;BME280;3316;44.118;27.258;2023-04-27T08:41:05;101017.81;;;17.88;44.07
6565;BME280;3316;44.118;27.258;2023-04-27T08:43:32;100957.69;;;17.29;44.04
6565;BME280;3316;44.118;27.258;2023-04-27T08:45:59;101016.97;;;17.05;43.53
6565;BME280;3316;44.118;27.258;2023-04-27T08:48:25;100985.63;;;16.57;45.08
6565;BME280;3316;44.118;27.258;2023-04-27T08:50:51;101025.41;;;16.59;45.88
6565;BME280;3316;44.118;27.258;2023-04-27T08:53:21;101021.50;;;16.40;46.75
6565;BME280;3316;44.118;27.258;2023-04-27T08:55:47;101022.56;;;16.33;46.96
6565;BME280;3316;44.118;27.258;2023-04-27T08:58:13;101019.16;;;15.95;46.43
6565;BME280;3316;44.118;27.258;2023-04-27T09:00:40;101022.69;;;15.62;47.58
6565;BME280;3316;44.118;27.258;2023-04-27T09:03:07;101022.63;;;15.99;47.06
6565;BME280;3316;44.118;27.258;2023-04-27T09:05:32;100975.13;;;16.53;45.92
6565;BME280;3316;44.118;27.258;2023-04-27T09:08:03;101012.94;;;17.47;45.06
6565;BME280;3316;44.118;27.258;2023-04-27T09:10:49;101019.22;;;17.17;44.40
6565;BME280;3316;44.118;27.258;2023-04-27T09:13:15;101011.91;;;16.96;44.80
6565;BME280;3316;44.118;27.258;2023-04-27T09:15:45;101010.97;;;16.98;45.65
6565;BME280;3316;44.118;27.258;2023-04-27T09:18:21;101010.88;;;17.29;45.75
6565;BME280;3316;44.118;27.258;2023-04-27T09:20:52;101010.44;;;17.15;45.57
6565;BME280;3316;44.118;27.258;2023-04-27T09:23:37;101001.34;;;17.22;46.48
6565;BME280;3316;44.118;27.258;2023-04-27T09:26:06;101009.91;;;17.31;46.44
6565;BME280;3316;44.118;27.258;2023-04-27T09:28:38;101002.09;;;17.54;45.88
6565;BME280;3316;44.118;27.258;2023-04-27T09:31:04;100994.34;;;17.99;44.43
6565;BME280;3316;44.118;27.258;2023-04-27T09:33:32;101012.63;;;17.84;45.17
6565;BME280;3316;44.118;27.258;2023-04-27T09:36:03;101005.66;;;17.79;44.47
6565;BME280;3316;44.118;27.258;2023-04-27T09:38:30;101004.91;;;18.02;43.49
6565;BME280;3316;44.118;27.258;2023-04-27T09:40:55;100999.94;;;18.41;43.41
6565;BME280;3316;44.118;27.258;2023-04-27T09:43:22;101006.56;;;18.54;42.89
6565;BME280;3316;44.118;27.258;2023-04-27T09:45:49;100990.03;;;17.43;43.88
6565;BME280;3316;44.118;27.258;2023-04-27T09:48:16;100962.63;;;17.13;46.34
6565;BME280;3316;44.118;27.258;2023-04-27T09:50:43;100980.53;;;17.88;44.72
6565;BME280;3316;44.118;27.258;2023-04-27T09:53:22;100990.91;;;17.96;44.69
6565;BME280;3316;44.118;27.258;2023-04-27T10:01:49;100989.88;;;18.95;42.99
6565;BME280;3316;44.118;27.258;2023-04-27T10:09:46;100986.78;;;18.36;44.55
6565;BME280;3316;44.118;27.258;2023-04-27T10:12:20;100970.63;;;18.41;45.81
6565;BME280;3316;44.118;27.258;2023-04-27T10:14:51;100981.22;;;17.93;45.62
6565;BME280;3316;44.118;27.258;2023-04-27T10:17:18;100989.13;;;18.21;44.96
6565;BME280;3316;44.118;27.258;2023-04-27T10:19:52;100982.31;;;18.12;46.44
6565;BME280;3316;44.118;27.258;2023-04-27T10:22:19;100967.28;;;17.33;47.16
6565;BME280;3316;44.118;27.258;2023-04-27T10:24:50;100986.97;;;17.00;49.76
6565;BME280;3316;44.118;27.258;2023-04-27T10:27:19;100970.47;;;17.18;48.83
6565;BME280;3316;44.118;27.258;2023-04-27T10:29:47;100994.41;;;16.59;51.21
6565;BME280;3316;44.118;27.258;2023-04-27T10:32:24;100983.28;;;16.13;52.85
6565;BME280;3316;44.118;27.258;2023-04-27T10:35:04;100983.34;;;15.79;52.83
6565;BME280;3316;44.118;27.258;2023-04-27T10:37:40;100991.47;;;15.73;52.66
6565;BME280;3316;44.118;27.258;2023-04-27T10:40:07;100992.66;;;15.62;53.71
6565;BME280;3316;44.118;27.258;2023-04-27T10:42:34;101005.53;;;15.42;53.46
6565;BME280;3316;44.118;27.258;2023-04-27T10:45:00;101016.97;;;15.44;54.34
6565;BME280;3316;44.118;27.258;2023-04-27T10:47:40;101008.03;;;15.09;56.06
6565;BME280;3316;44.118;27.258;2023-04-27T10:50:10;101002.72;;;15.09;58.10
6565;BME280;3316;44.118;27.258;2023-04-27T10:52:43;100991.13;;;14.75;60.96
6565;BME280;3316;44.118;27.258;2023-04-27T10:55:17;101002.44;;;14.83;61.82
6565;BME280;3316;44.118;27.258;2023-04-27T10:57:50;101011.47;;;14.73;59.86
6565;BME280;3316;44.118;27.258;2023-04-27T11:00:40;101005.00;;;14.86;59.33
6565;BME280;3316;44.118;27.258;2023-04-27T11:03:14;100991.00;;;14.81;58.00
6565;BME280;3316;44.118;27.258;2023-04-27T11:05:41;100994.44;;;14.85;58.47
6565;BME280;3316;44.118;27.258;2023-04-27T11:08:09;101000.63;;;14.85;62.31
6565;BME280;3316;44.118;27.258;2023-04-27T11:10:46;101011.13;;;14.88;64.06
6565;BME280;3316;44.118;27.258;2023-04-27T11:13:18;101013.47;;;15.02;64.41
6565;BME280;3316;44.118;27.258;2023-04-27T11:15:47;101013.66;;;14.96;65.72
6565;BME280;3316;44.118;27.258;2023-04-27T11:18:13;101007.59;;;14.89;65.04
6565;BME280;3316;44.118;27.258;2023-04-27T11:20:40;100980.31;;;14.86;62.39
6565;BME280;3316;44.118;27.258;2023-04-27T11:23:06;100998.00;;;14.84;61.48
6565;BME280;3316;44.118;27.258;2023-04-27T11:25:32;101011.97;;;14.90;61.18
6565;BME280;3316;44.118;27.258;2023-04-27T11:27:57;101016.13;;;15.03;60.90
6565;BME280;3316;44.118;27.258;2023-04-27T11:30:23;101010.84;;;15.40;59.46
6565;BME280;3316;44.118;27.258;2023-04-27T11:32:49;101006.50;;;15.73;58.23
6565;BME280;3316;44.118;27.258;2023-04-27T11:35:16;101004.31;;;15.88;58.91
6565;BME280;3316;44.118;27.258;2023-04-27T11:37:42;101012.25;;;15.90;59.26
6565;BME280;3316;44.118;27.258;2023-04-27T11:40:08;101012.63;;;15.75;59.78
6565;BME280;3316;44.118;27.258;2023-04-27T11:42:35;101009.50;;;15.59;59.97
6565;BME280;3316;44.118;27.258;2023-04-27T11:45:02;101014.50;;;15.35;61.19
6565;BME280;3316;44.118;27.258;2023-04-27T11:47:31;100987.16;;;14.96;62.60
6565;BME280;3316;44.118;27.258;2023-04-27T11:49:59;101010.13;;;14.95;69.42
6565;BME280;3316;44.118;27.258;2023-04-27T11:52:33;101016.56;;;14.82;79.54
6565;BME280;3316;44.118;27.258;2023-04-27T11:55:00;101021.63;;;14.52;85.32
6565;BME280;3316;44.118;27.258;2023-04-27T11:57:30;101023.41;;;14.51;85.62
6565;BME280;3316;44.118;27.258;2023-04-27T11:59:57;101012.25;;;14.37;89.34
6565;BME280;3316;44.118;27.258;2023-04-27T12:02:27;101002.38;;;13.98;93.96
6565;BME280;3316;44.118;27.258;2023-04-27T12:04:53;101009.84;;;13.75;93.86
6565;BME280;3316;44.118;27.258;2023-04-27T12:07:19;101000.53;;;13.53;96.77
6565;BME280;3316;44.118;27.258;2023-04-27T12:09:44;101004.84;;;13.57;98.57
6565;BME280;3316;44.118;27.258;2023-04-27T12:12:11;101005.13;;;13.42;100.00
6565;BME280;3316;44.118;27.258;2023-04-27T12:14:43;100989.31;;;13.37;100.00
6565;BME280;3316;44.118;27.258;2023-04-27T12:17:08;101001.53;;;13.46;100.00
6565;BME280;3316;44.118;27.258;2023-04-27T12:19:34;100995.00;;;13.66;100.00
6565;BME280;3316;44.118;27.258;2023-04-27T12:22:01;101000.41;;;13.59;99.72
6565;BME280;3316;44.118;27.258;2023-04-27T12:24:27;101004.72;;;13.64;100.00
6565;BME280;3316;44.118;27.258;2023-04-27T12:26:52;100990.53;;;13.70;98.34
6565;BME280;3316;44.118;27.258;2023-04-27T12:29:18;100999.16;;;13.81;96.24
6565;BME280;3316;44.118;27.258;2023-04-27T12:31:43;100995.78;;;13.73;95.97
6565;BME280;3316;44.118;27.258;2023-04-27T12:34:08;100994.72;;;13.81;95.24
6565;BME280;3316;44.118;27.258;2023-04-27T12:36:34;101000.28;;;14.15;95.50
6565;BME280;3316;44.118;27.258;2023-04-27T12:39:13;101001.78;;;14.31;90.46
6565;BME280;3316;44.118;27.258;2023-04-27T12:41:39;101000.03;;;14.27;91.09
6565;BME280;3316;44.118;27.258;2023-04-27T12:44:04;101003.47;;;14.34;91.30
6565;BME280;3316;44.118;27.258;2023-04-27T12:46:30;100990.38;;;14.24;94.46
6565;BME280;3316;44.118;27.258;2023-04-27T12:48:56;100996.28;;;14.40;95.97
6565;BME280;3316;44.118;27.258;2023-04-27T12:51:22;100993.56;;;14.45;97.89
6565;BME280;3316;44.118;27.258;2023-04-27T12:53:48;100988.72;;;14.63;96.89
6565;BME280;3316;44.118;27.258;2023-04-27T12:56:13;100990.41;;;14.67;93.25
6565;BME280;3316;44.118;27.258;2023-04-27T12:58:38;100989.06;;;14.48;95.08
6565;BME280;3316;44.118;27.258;2023-04-27T13:01:05;100985.06;;;14.26;94.16
6565;BME280;3316;44.118;27.258;2023-04-27T13:03:39;100995.78;;;14.18;97.57
6565;BME280;3316;44.118;27.258;2023-04-27T13:06:04;100953.28;;;13.82;100.00
6565;BME280;3316;44.118;27.258;2023-04-27T13:08:29;100991.22;;;14.26;100.00